Time;durP1;ratioP1;P1;durP2;ratioP2;P2;SDS_P1;SDS_P2;PMS_P1;PMS_P2;Temp;Humidity;BMP_temperature;BMP_pressure;BME280_temperature;BME280_humidity;BME280_pressure;Samples;Min_cycle;Max_cycle;Signal;HPM_P1;HPM_P2
2023/05/07 00:00:22;;;;;;;;;;;;;;;27.31;37.66;101082.50;4132583;28;19968;-63
2023/05/07 00:02:24;;;;;;;;;;;;;;;27.31;37.52;101085.19;4116192;28;19976;-64
2023/05/07 00:04:26;;;;;;;;;;;;;;;27.19;37.50;101062.13;4133367;28;19964;-64
2023/05/07 00:06:28;;;;;;;;;;;;;;;27.29;37.45;101079.09;4132895;28;19921;-64
2023/05/07 00:08:30;;;;;;;;;;;;;;;27.27;37.44;101075.72;4132726;28;19922;-63
2023/05/07 00:10:32;;;;;;;;;;;;;;;27.27;37.83;101073.84;4133023;28;19936;-63
2023/05/07 00:12:33;;;;;;;;;;;;;;;27.26;37.67;101085.66;4133422;28;20016;-63
2023/05/07 00:14:35;;;;;;;;;;;;;;;27.26;37.62;101079.41;4133217;28;19957;-63
2023/05/07 00:16:37;;;;;;;;;;;;;;;27.25;37.84;101078.56;4133139;28;20307;-63
2023/05/07 00:18:38;;;;;;;;;;;;;;;27.23;38.06;101072.47;4132247;28;20314;-63
2023/05/07 00:20:40;;;;;;;;;;;;;;;27.24;37.81;101076.88;4132711;28;19991;-63
2023/05/07 00:22:41;;;;;;;;;;;;;;;27.24;37.98;101081.41;4132999;28;19949;-63
2023/05/07 00:24:43;;;;;;;;;;;;;;;27.24;37.90;101076.88;4133237;28;20323;-63
2023/05/07 00:26:44;;;;;;;;;;;;;;;27.25;37.81;101083.13;4133059;28;19922;-63
2023/05/07 00:28:46;;;;;;;;;;;;;;;27.25;37.92;101085.81;4132286;28;20350;-63
2023/05/07 00:30:47;;;;;;;;;;;;;;;27.25;37.90;101093.91;4132492;28;20335;-63
2023/05/07 00:32:50;;;;;;;;;;;;;;;27.26;38.10;101087.53;4132925;28;19921;-64
2023/05/07 00:34:52;;;;;;;;;;;;;;;27.25;37.87;101083.94;4132459;28;19928;-63
2023/05/07 00:36:53;;;;;;;;;;;;;;;27.26;37.86;101080.25;4132938;28;19922;-63
2023/05/07 00:38:56;;;;;;;;;;;;;;;27.25;37.77;101077.72;4131921;28;19922;-64
2023/05/07 00:40:58;;;;;;;;;;;;;;;27.25;37.74;101081.25;4131622;28;19964;-62
2023/05/07 00:42:59;;;;;;;;;;;;;;;27.24;37.98;101086.81;4132733;28;19968;-62
2023/05/07 00:45:01;;;;;;;;;;;;;;;27.24;38.00;101094.91;4133077;28;19925;-63
2023/05/07 00:47:04;;;;;;;;;;;;;;;27.23;38.17;101085.97;4132633;28;19976;-63
2023/05/07 00:49:06;;;;;;;;;;;;;;;27.23;37.89;101077.88;4131597;28;19965;-63
2023/05/07 00:51:09;;;;;;;;;;;;;;;27.23;38.16;101072.47;4132211;28;19921;-62
2023/05/07 00:53:10;;;;;;;;;;;;;;;27.22;37.79;101078.88;4131943;28;20040;-61
2023/05/07 00:55:14;;;;;;;;;;;;;;;27.21;38.17;101077.19;4132497;28;20332;-63
2023/05/07 00:57:15;;;;;;;;;;;;;;;27.22;37.93;101078.00;4132495;28;19929;-63
2023/05/07 00:59:17;;;;;;;;;;;;;;;27.21;38.25;101071.78;4131502;28;20288;-62
2023/05/07 01:01:19;;;;;;;;;;;;;;;27.22;37.90;101069.91;4132519;28;19926;-63
2023/05/07 01:03:20;;;;;;;;;;;;;;;27.21;38.12;101074.47;4132704;28;20291;-62
2023/05/07 01:05:23;;;;;;;;;;;;;;;27.21;38.03;101070.94;4132152;28;19921;-62
2023/05/07 01:07:25;;;;;;;;;;;;;;;27.20;37.94;101064.69;4132451;28;20294;-63
2023/05/07 01:09:28;;;;;;;;;;;;;;;27.19;38.04;101078.34;4131495;28;19922;-62
2023/05/07 01:11:29;;;;;;;;;;;;;;;27.19;38.33;101067.53;4132180;28;19992;-63
2023/05/07 01:13:31;;;;;;;;;;;;;;;27.18;38.32;101074.81;4132306;28;20261;-62
2023/05/07 01:15:32;;;;;;;;;;;;;;;27.18;38.30;101068.53;4132010;28;19922;-63
2023/05/07 01:17:37;;;;;;;;;;;;;;;27.18;38.43;101069.41;4132045;28;19921;-63
2023/05/07 01:19:39;;;;;;;;;;;;;;;27.18;38.20;101068.53;4129775;28;19922;-62
2023/05/07 01:21:44;;;;;;;;;;;;;;;27.16;38.16;101066.00;4131934;28;19976;-63
2023/05/07 01:23:47;;;;;;;;;;;;;;;27.15;38.21;101060.78;4114705;28;19926;-62
2023/05/07 01:25:51;;;;;;;;;;;;;;;27.15;38.16;101060.78;4115972;28;19921;-63
2023/05/07 01:27:53;;;;;;;;;;;;;;;27.15;38.09;101058.06;4115924;28;20013;-64
2023/05/07 01:29:55;;;;;;;;;;;;;;;27.14;38.34;101057.19;4114948;28;20561;-63
2023/05/07 01:31:58;;;;;;;;;;;;;;;27.13;38.15;101060.91;4116227;28;20387;-63
2023/05/07 01:34:01;;;;;;;;;;;;;;;27.14;38.27;101062.59;4115546;28;19925;-64
2023/05/07 01:36:06;;;;;;;;;;;;;;;27.13;38.27;101060.06;4115909;28;19958;-63
2023/05/07 01:38:08;;;;;;;;;;;;;;;27.13;38.20;101063.59;4116034;28;20008;-64
2023/05/07 01:40:10;;;;;;;;;;;;;;;27.13;38.16;101060.06;4114764;28;19922;-63
2023/05/07 01:42:12;;;;;;;;;;;;;;;27.12;38.20;101067.31;4115691;28;20381;-64
2023/05/07 01:44:15;;;;;;;;;;;;;;;27.12;38.27;101056.50;4115723;28;19997;-64
2023/05/07 01:46:17;;;;;;;;;;;;;;;27.11;38.62;101068.31;4115773;28;19926;-64
2023/05/07 01:48:19;;;;;;;;;;;;;;;27.11;38.63;101065.63;4115382;28;19922;-64
2023/05/07 01:50:21;;;;;;;;;;;;;;;27.09;38.59;101068.47;4114611;28;19922;-64
2023/05/07 01:52:22;;;;;;;;;;;;;;;27.09;38.65;101067.63;4115775;28;19929;-63
2023/05/07 01:54:30;;;;;;;;;;;;;;;27.09;38.38;101067.63;4115342;28;20016;-63
2023/05/07 01:56:31;;;;;;;;;;;;;;;27.09;38.37;101071.16;4115686;28;20021;-63
2023/05/07 01:58:33;;;;;;;;;;;;;;;27.11;38.51;101071.03;4115644;28;19928;-64
2023/05/07 02:00:34;;;;;;;;;;;;;;;27.10;38.54;101069.31;4114515;28;19922;-62
2023/05/07 02:02:37;;;;;;;;;;;;;;;27.10;38.36;101069.31;4115294;28;20330;-64
2023/05/07 02:04:39;;;;;;;;;;;;;;;27.10;38.35;101064.75;4115418;28;19944;-64
2023/05/07 02:06:41;;;;;;;;;;;;;;;27.12;38.30;101066.47;4115492;28;20370;-63
2023/05/07 02:08:43;;;;;;;;;;;;;;;27.10;38.22;101064.75;4115410;28;20316;-63
2023/05/07 02:10:44;;;;;;;;;;;;;;;27.11;38.39;101065.63;4114319;28;19932;-63
2023/05/07 02:12:46;;;;;;;;;;;;;;;27.10;38.23;101059.38;4115468;28;20339;-63
2023/05/07 02:14:47;;;;;;;;;;;;;;;27.12;38.19;101069.16;4115519;28;20009;-64
2023/05/07 02:16:49;;;;;;;;;;;;;;;27.12;38.47;101066.47;4115054;28;19946;-63
2023/05/07 02:18:50;;;;;;;;;;;;;;;27.11;38.34;101062.94;4114933;28;19928;-64
2023/05/07 02:20:52;;;;;;;;;;;;;;;27.13;38.33;101066.31;4114973;28;19989;-63
2023/05/07 02:22:54;;;;;;;;;;;;;;;27.12;38.40;101072.69;4122318;28;19922;-64
2023/05/07 02:24:55;;;;;;;;;;;;;;;27.13;38.44;101066.31;4129884;28;19953;-63
2023/05/07 02:26:56;;;;;;;;;;;;;;;27.12;38.48;101072.69;4131294;28;20307;-63
2023/05/07 02:28:58;;;;;;;;;;;;;;;27.12;38.57;101075.41;4130654;28;19921;-64
2023/05/07 02:31:00;;;;;;;;;;;;;;;27.13;38.32;101070.88;4130807;28;19983;-63
2023/05/07 02:33:02;;;;;;;;;;;;;;;27.13;38.20;101066.31;4131313;28;19922;-62
2023/05/07 02:35:04;;;;;;;;;;;;;;;27.11;38.29;101062.94;4131238;28;19928;-63
2023/05/07 02:37:06;;;;;;;;;;;;;;;27.12;38.24;101074.56;4131498;28;19968;-64
2023/05/07 02:39:07;;;;;;;;;;;;;;;27.13;38.56;101071.69;4130424;28;19929;-64
2023/05/07 02:41:09;;;;;;;;;;;;;;;27.13;38.21;101078.97;4131025;28;19922;-63
2023/05/07 02:43:10;;;;;;;;;;;;;;;27.14;38.50;101081.50;4131124;28;20024;-63
2023/05/07 02:45:12;;;;;;;;;;;;;;;27.14;38.42;101077.97;4130963;28;19921;-64
2023/05/07 02:47:15;;;;;;;;;;;;;;;27.15;38.47;101085.06;4131217;28;19925;-63
2023/05/07 02:49:16;;;;;;;;;;;;;;;27.13;38.51;101087.91;4130398;28;20403;-63
2023/05/07 02:51:19;;;;;;;;;;;;;;;27.14;38.53;101086.06;4130936;28;19922;-63
2023/05/07 02:53:22;;;;;;;;;;;;;;;27.14;38.42;101089.59;4131232;28;19921;-63
2023/05/07 02:55:23;;;;;;;;;;;;;;;27.14;38.27;101086.91;4131268;28;20256;-63
2023/05/07 02:57:25;;;;;;;;;;;;;;;27.12;38.79;101088.91;4131020;28;19922;-62
2023/05/07 02:59:26;;;;;;;;;;;;;;;27.14;38.45;101091.47;4129909;28;19930;-63
2023/05/07 03:01:28;;;;;;;;;;;;;;;27.12;38.42;101083.50;4113705;28;20017;-65
2023/05/07 03:03:29;;;;;;;;;;;;;;;27.13;38.47;101078.97;4131228;28;19921;-62
2023/05/07 03:05:31;;;;;;;;;;;;;;;27.13;38.68;101082.50;4131110;28;19968;-63
2023/05/07 03:07:32;;;;;;;;;;;;;;;27.14;38.73;101083.38;4131035;28;19928;-64
2023/05/07 03:09:33;;;;;;;;;;;;;;;27.13;38.60;101074.41;4128778;28;20028;-64
2023/05/07 03:11:35;;;;;;;;;;;;;;;27.14;38.74;101076.09;4130633;28;19922;-63
2023/05/07 03:13:37;;;;;;;;;;;;;;;27.14;38.48;101077.97;4131064;28;19957;-64
2023/05/07 03:15:38;;;;;;;;;;;;;;;27.14;38.71;101075.25;4131822;28;19932;-64
2023/05/07 03:17:40;;;;;;;;;;;;;;;27.14;38.75;101072.56;4134120;28;19944;-64
2023/05/07 03:19:41;;;;;;;;;;;;;;;27.14;38.46;101083.38;4133040;28;19925;-64
2023/05/07 03:21:43;;;;;;;;;;;;;;;27.13;38.58;101087.91;4134005;28;19921;-64
2023/05/07 03:23:45;;;;;;;;;;;;;;;27.12;38.84;101086.19;4133738;28;19921;-63
2023/05/07 03:25:46;;;;;;;;;;;;;;;27.14;38.54;101086.06;4133868;28;19926;-64
2023/05/07 03:27:47;;;;;;;;;;;;;;;27.13;38.51;101084.38;4133959;28;19922;-65
2023/05/07 03:29:49;;;;;;;;;;;;;;;27.13;38.51;101087.91;4132741;28;19922;-64
2023/05/07 03:31:50;;;;;;;;;;;;;;;27.13;38.42;101085.19;4133859;28;20386;-64
2023/05/07 03:33:56;;;;;;;;;;;;;;;27.14;38.61;101076.09;4133788;28;19936;-63
2023/05/07 03:35:58;;;;;;;;;;;;;;;27.15;38.71;101076.97;4133729;28;19921;-63
2023/05/07 03:38:00;;;;;;;;;;;;;;;27.14;38.93;101073.41;4133852;28;19932;-63
2023/05/07 03:40:02;;;;;;;;;;;;;;;27.15;38.86;101068.88;4099323;29;19989;-64
2023/05/07 03:42:03;;;;;;;;;;;;;;;27.15;38.52;101075.09;4133590;28;19925;-64
2023/05/07 03:44:05;;;;;;;;;;;;;;;27.16;38.79;101073.25;4133381;28;19926;-64
2023/05/07 03:46:06;;;;;;;;;;;;;;;27.16;38.57;101074.09;4116291;28;19922;-63
2023/05/07 03:48:08;;;;;;;;;;;;;;;27.16;38.62;101073.25;4133697;28;19930;-64
2023/05/07 03:50:10;;;;;;;;;;;;;;;27.06;38.47;101059.81;4132532;28;19922;-64
2023/05/07 03:52:12;;;;;;;;;;;;;;;27.15;38.46;101083.19;4133623;28;19929;-64
2023/05/07 03:54:14;;;;;;;;;;;;;;;27.14;38.50;101078.81;4132070;28;19922;-64
2023/05/07 03:56:15;;;;;;;;;;;;;;;27.14;38.42;101081.50;4133389;28;19922;-64
2023/05/07 03:58:20;;;;;;;;;;;;;;;27.14;38.76;101083.38;4133319;28;19933;-64
2023/05/07 04:00:22;;;;;;;;;;;;;;;27.15;38.52;101090.47;4132395;28;19984;-64
2023/05/07 04:02:23;;;;;;;;;;;;;;;27.15;38.42;101090.47;4133435;28;19976;-64
2023/05/07 04:04:25;;;;;;;;;;;;;;;27.16;38.58;101089.44;4133381;28;19922;-64
2023/05/07 04:06:27;;;;;;;;;;;;;;;27.16;38.53;101097.53;4133316;28;19925;-63
2023/05/07 04:08:29;;;;;;;;;;;;;;;27.15;38.52;101094.00;4133206;28;19922;-64
2023/05/07 04:10:30;;;;;;;;;;;;;;;27.16;38.64;101094.84;4132097;28;19980;-63
2023/05/07 04:12:32;;;;;;;;;;;;;;;27.15;38.50;101091.31;4132872;28;19922;-63
2023/05/07 04:14:33;;;;;;;;;;;;;;;27.15;38.50;101095.88;4133056;28;19921;-63
2023/05/07 04:16:35;;;;;;;;;;;;;;;27.15;38.40;101087.78;4133348;28;19957;-63
2023/05/07 04:18:36;;;;;;;;;;;;;;;27.14;38.57;101091.47;4133299;28;20418;-63
2023/05/07 04:20:38;;;;;;;;;;;;;;;27.13;38.74;101087.91;4131961;28;19922;-64
2023/05/07 04:22:39;;;;;;;;;;;;;;;27.12;38.60;101091.59;4115545;28;19938;-64
2023/05/07 04:24:41;;;;;;;;;;;;;;;27.14;38.75;101088.75;4116978;28;19922;-64
2023/05/07 04:26:42;;;;;;;;;;;;;;;27.14;38.50;101094.16;4116583;28;19928;-64
2023/05/07 04:28:44;;;;;;;;;;;;;;;27.14;38.54;101099.56;4115535;28;19961;-64
2023/05/07 04:30:46;;;;;;;;;;;;;;;27.15;38.53;101102.09;4115845;28;20394;-63
2023/05/07 04:32:48;;;;;;;;;;;;;;;27.15;38.63;101106.66;4116613;28;19960;-65
2023/05/07 04:34:49;;;;;;;;;;;;;;;27.15;38.88;101110.19;4116411;28;19926;-64
2023/05/07 04:36:51;;;;;;;;;;;;;;;27.16;38.62;101111.03;4116869;28;19928;-64
2023/05/07 04:38:53;;;;;;;;;;;;;;;27.15;38.52;101112.06;4116946;28;19922;-63
2023/05/07 04:40:54;;;;;;;;;;;;;;;27.15;38.39;101112.91;4115220;28;19922;-64
2023/05/07 04:42:56;;;;;;;;;;;;;;;27.16;38.39;101116.44;4116641;28;19933;-64
2023/05/07 04:44:57;;;;;;;;;;;;;;;27.15;38.53;101120.16;4116665;28;19926;-64
2023/05/07 04:46:59;;;;;;;;;;;;;;;27.15;38.83;101126.41;4116669;28;19922;-63
2023/05/07 04:49:00;;;;;;;;;;;;;;;27.14;38.56;101123.88;4116515;28;20347;-63
2023/05/07 04:51:02;;;;;;;;;;;;;;;27.13;38.59;101128.41;4114359;28;19984;-62
2023/05/07 04:53:03;;;;;;;;;;;;;;;27.15;38.39;101133.66;4116715;28;19922;-63
2023/05/07 04:55:05;;;;;;;;;;;;;;;27.15;38.81;101136.38;4116459;28;19922;-64
2023/05/07 04:57:07;;;;;;;;;;;;;;;27.15;38.37;101134.50;4116207;28;19921;-63
2023/05/07 04:59:08;;;;;;;;;;;;;;;27.15;38.50;101131.81;4116316;28;19964;-63
2023/05/07 05:01:10;;;;;;;;;;;;;;;27.16;38.69;101133.50;4115298;28;20244;-63
2023/05/07 05:03:12;;;;;;;;;;;;;;;27.16;38.58;101135.34;4116318;28;20006;-63
2023/05/07 05:05:13;;;;;;;;;;;;;;;27.15;38.73;101142.59;4116243;28;19929;-65
2023/05/07 05:07:15;;;;;;;;;;;;;;;27.15;38.69;101137.19;4116317;28;20288;-65
2023/05/07 05:09:17;;;;;;;;;;;;;;;27.14;38.50;101138.19;4116083;28;20020;-65
2023/05/07 05:11:18;;;;;;;;;;;;;;;27.15;38.47;101142.59;4114747;28;19922;-65
2023/05/07 05:13:21;;;;;;;;;;;;;;;27.15;38.49;101139.06;4116340;28;19926;-65
2023/05/07 05:15:23;;;;;;;;;;;;;;;27.15;38.61;101145.31;4116111;28;19922;-65
2023/05/07 05:17:24;;;;;;;;;;;;;;;27.14;38.41;101137.38;4115937;28;19926;-65
2023/05/07 05:19:26;;;;;;;;;;;;;;;27.15;38.52;101137.19;4116059;28;19922;-65
2023/05/07 05:21:27;;;;;;;;;;;;;;;27.14;38.51;101135.50;4115387;28;19925;-64
2023/05/07 05:23:29;;;;;;;;;;;;;;;27.15;38.69;101141.75;4127675;28;19984;-64
2023/05/07 05:25:30;;;;;;;;;;;;;;;27.16;38.32;101151.53;4131576;28;19976;-64
2023/05/07 05:27:32;;;;;;;;;;;;;;;27.16;38.86;101149.69;4131993;28;20046;-65
2023/05/07 05:29:34;;;;;;;;;;;;;;;27.16;38.31;101151.53;4131436;28;19968;-65
2023/05/07 05:31:36;;;;;;;;;;;;;;;27.17;38.38;101153.25;4131631;28;20375;-65
2023/05/07 05:33:37;;;;;;;;;;;;;;;27.16;38.40;101154.25;4131827;28;19925;-64
2023/05/07 05:35:39;;;;;;;;;;;;;;;27.15;38.52;101157.97;4131860;28;19926;-64
2023/05/07 05:37:41;;;;;;;;;;;;;;;27.15;38.37;101158.81;4131503;28;20173;-64
2023/05/07 05:39:42;;;;;;;;;;;;;;;27.15;38.20;101156.09;4130583;28;19929;-65
2023/05/07 05:41:44;;;;;;;;;;;;;;;27.16;38.43;101159.63;4131528;28;20021;-65
2023/05/07 05:43:45;;;;;;;;;;;;;;;27.14;38.75;101157.09;4131930;28;19922;-64
2023/05/07 05:45:47;;;;;;;;;;;;;;;27.15;38.74;101163.38;4131582;28;19928;-65
2023/05/07 05:47:48;;;;;;;;;;;;;;;27.14;38.49;101162.50;4131750;28;19922;-65
2023/05/07 05:49:50;;;;;;;;;;;;;;;27.15;38.76;101163.38;4113629;28;19928;-64
2023/05/07 05:51:51;;;;;;;;;;;;;;;27.15;38.61;101161.50;4131528;28;20005;-65
2023/05/07 05:53:53;;;;;;;;;;;;;;;27.15;38.38;101164.19;4131327;28;20000;-65
2023/05/07 05:55:54;;;;;;;;;;;;;;;27.17;38.60;101166.75;4131731;28;19976;-64
2023/05/07 05:57:56;;;;;;;;;;;;;;;27.17;38.40;101173.00;4131474;28;19928;-64
2023/05/07 05:59:58;;;;;;;;;;;;;;;27.17;38.44;101173.00;4130830;28;20422;-64
2023/05/07 06:01:59;;;;;;;;;;;;;;;27.18;38.71;101168.44;4131473;28;20355;-64
2023/05/07 06:04:01;;;;;;;;;;;;;;;27.18;38.78;101172.00;4131696;28;19922;-64
2023/05/07 06:06:02;;;;;;;;;;;;;;;27.18;38.52;101163.03;4131453;28;20017;-64
2023/05/07 06:08:04;;;;;;;;;;;;;;;27.17;38.56;101167.59;4131209;28;19922;-63
2023/05/07 06:10:06;;;;;;;;;;;;;;;27.17;38.57;101172.16;4130680;28;19921;-63
2023/05/07 06:12:07;;;;;;;;;;;;;;;27.17;38.70;101178.41;4131364;28;19926;-64
2023/05/07 06:14:09;;;;;;;;;;;;;;;27.17;38.73;101174.84;4131358;28;20294;-64
2023/05/07 06:16:10;;;;;;;;;;;;;;;27.17;38.39;101177.53;4131301;28;20004;-64
2023/05/07 06:18:12;;;;;;;;;;;;;;;27.17;38.50;101181.09;4131489;28;19929;-64
2023/05/07 06:20:14;;;;;;;;;;;;;;;27.18;38.61;101181.94;4130678;28;19922;-64
2023/05/07 06:22:15;;;;;;;;;;;;;;;27.17;38.50;101181.09;4131155;28;19922;-64
2023/05/07 06:24:17;;;;;;;;;;;;;;;27.17;38.74;101175.72;4130864;28;19922;-64
2023/05/07 06:26:18;;;;;;;;;;;;;;;27.17;38.64;101181.09;4130971;28;20296;-64
2023/05/07 06:28:20;;;;;;;;;;;;;;;27.17;38.39;101180.25;4131191;28;19922;-64
2023/05/07 06:30:21;;;;;;;;;;;;;;;27.16;38.44;101183.94;4130632;28;19933;-63
2023/05/07 06:32:23;;;;;;;;;;;;;;;27.16;38.68;101184.81;4131025;28;19922;-64
2023/05/07 06:34:25;;;;;;;;;;;;;;;27.16;38.45;101184.81;4131282;28;20020;-64
2023/05/07 06:36:26;;;;;;;;;;;;;;;27.16;38.79;101179.41;4131051;28;19922;-64
2023/05/07 06:38:27;;;;;;;;;;;;;;;27.17;38.70;101185.63;4131073;28;19922;-64
2023/05/07 06:40:29;;;;;;;;;;;;;;;27.17;38.61;101180.25;4130110;28;20008;-64
2023/05/07 06:42:31;;;;;;;;;;;;;;;27.17;38.45;101189.22;4131233;28;20004;-63
2023/05/07 06:44:32;;;;;;;;;;;;;;;27.17;38.54;101185.63;4131136;28;19925;-63
2023/05/07 06:46:34;;;;;;;;;;;;;;;27.18;38.89;101187.34;4131132;28;20012;-63
2023/05/07 06:48:35;;;;;;;;;;;;;;;27.18;38.66;101190.03;4131261;28;19949;-63
2023/05/07 06:50:37;;;;;;;;;;;;;;;27.18;38.66;101185.50;4131476;28;20368;-64
2023/05/07 06:52:38;;;;;;;;;;;;;;;27.20;38.79;101185.34;4134018;28;19925;-64
2023/05/07 06:54:40;;;;;;;;;;;;;;;27.21;38.59;101195.16;4134411;28;20299;-64
2023/05/07 06:56:41;;;;;;;;;;;;;;;27.20;38.47;101197.00;4134496;28;20022;-64
2023/05/07 06:58:43;;;;;;;;;;;;;;;27.21;38.60;101196.00;4134438;28;19925;-64
2023/05/07 07:00:45;;;;;;;;;;;;;;;27.21;38.61;101193.28;4133187;28;19925;-64
2023/05/07 07:02:47;;;;;;;;;;;;;;;27.21;38.43;101198.69;4134303;28;20080;-65
2023/05/07 07:04:49;;;;;;;;;;;;;;;27.21;38.58;101200.56;4134237;28;19960;-64
2023/05/07 07:06:51;;;;;;;;;;;;;;;27.21;38.52;101197.84;4133862;28;19949;-63
2023/05/07 07:08:53;;;;;;;;;;;;;;;27.22;38.80;101202.22;4134208;28;19921;-64
2023/05/07 07:10:54;;;;;;;;;;;;;;;27.22;38.70;101203.09;4134013;28;20379;-64
2023/05/07 07:12:56;;;;;;;;;;;;;;;27.21;38.85;101204.09;4134039;28;19922;-65
2023/05/07 07:14:58;;;;;;;;;;;;;;;27.22;38.71;101204.94;4134141;28;20008;-64
2023/05/07 07:16:59;;;;;;;;;;;;;;;27.22;38.77;101204.94;4133987;28;19922;-64
2023/05/07 07:19:01;;;;;;;;;;;;;;;27.23;38.77;101210.19;4133999;28;19969;-63
2023/05/07 07:21:02;;;;;;;;;;;;;;;27.22;38.68;101213.91;4132713;28;20284;-65
2023/05/07 07:23:04;;;;;;;;;;;;;;;27.22;38.60;101216.59;4133674;28;19988;-63
2023/05/07 07:25:06;;;;;;;;;;;;;;;27.22;38.87;101219.31;4134148;28;20399;-64
2023/05/07 07:27:07;;;;;;;;;;;;;;;27.23;38.47;101214.72;4133870;28;19922;-63
2023/05/07 07:29:09;;;;;;;;;;;;;;;27.22;38.83;101218.44;4133955;28;19961;-63
2023/05/07 07:31:10;;;;;;;;;;;;;;;27.21;38.59;101227.56;4132865;28;19944;-63
2023/05/07 07:33:12;;;;;;;;;;;;;;;27.21;38.54;101227.56;4133689;28;19928;-63
2023/05/07 07:35:14;;;;;;;;;;;;;;;27.21;38.91;101224.84;4133780;28;19941;-63
2023/05/07 07:37:15;;;;;;;;;;;;;;;27.21;38.52;101223.00;4133771;28;20301;-62
2023/05/07 07:39:17;;;;;;;;;;;;;;;27.20;38.89;101232.09;4133794;28;19922;-62
2023/05/07 07:41:19;;;;;;;;;;;;;;;27.20;38.68;101229.38;4132741;28;19925;-63
2023/05/07 07:43:20;;;;;;;;;;;;;;;27.21;38.89;101230.25;4133718;28;19929;-62
2023/05/07 07:45:22;;;;;;;;;;;;;;;27.22;38.72;101229.22;4133495;28;19928;-64
2023/05/07 07:47:24;;;;;;;;;;;;;;;27.21;38.56;101232.97;4132321;28;20427;-63
2023/05/07 07:49:26;;;;;;;;;;;;;;;27.21;38.48;101232.97;4133359;28;20292;-63
2023/05/07 07:51:27;;;;;;;;;;;;;;;27.21;38.82;101236.50;4132520;28;19921;-63
2023/05/07 07:53:29;;;;;;;;;;;;;;;27.20;38.65;101232.09;4133444;28;20347;-63
2023/05/07 07:55:31;;;;;;;;;;;;;;;27.21;38.59;101236.50;4116293;28;20472;-64
2023/05/07 07:57:33;;;;;;;;;;;;;;;27.20;38.51;101231.25;4133543;28;19932;-63
2023/05/07 07:59:35;;;;;;;;;;;;;;;27.21;38.50;101238.38;4133234;28;19922;-64
2023/05/07 08:01:36;;;;;;;;;;;;;;;27.21;38.89;101233.78;4132035;28;19922;-64
2023/05/07 08:03:38;;;;;;;;;;;;;;;27.20;38.68;101239.34;4133520;28;19926;-64
2023/05/07 08:05:40;;;;;;;;;;;;;;;27.21;38.77;101238.38;4133071;28;19961;-64
2023/05/07 08:07:41;;;;;;;;;;;;;;;27.20;38.55;101240.19;4133509;28;19922;-64
2023/05/07 08:09:43;;;;;;;;;;;;;;;27.21;38.98;101236.50;4132775;28;19928;-66
2023/05/07 08:11:44;;;;;;;;;;;;;;;27.20;39.06;101245.59;4132688;28;20008;-63
2023/05/07 08:13:46;;;;;;;;;;;;;;;27.21;38.76;101241.06;4115890;28;20005;-63
2023/05/07 08:15:47;;;;;;;;;;;;;;;27.22;38.66;101240.03;4133279;28;19922;-65
2023/05/07 08:17:49;;;;;;;;;;;;;;;27.21;38.77;101243.75;4133103;28;19925;-64
2023/05/07 08:19:51;;;;;;;;;;;;;;;27.20;39.01;101251.00;4132157;28;19922;-65
2023/05/07 08:21:52;;;;;;;;;;;;;;;27.21;39.01;101254.56;4132832;28;20020;-63
2023/05/07 08:23:54;;;;;;;;;;;;;;;27.21;38.95;101255.41;4132709;28;20444;-63
2023/05/07 08:25:55;;;;;;;;;;;;;;;27.21;38.83;101259.97;4132958;28;20422;-63
2023/05/07 08:27:57;;;;;;;;;;;;;;;27.21;38.72;101258.09;4133030;28;20395;-63
2023/05/07 08:29:58;;;;;;;;;;;;;;;27.24;38.81;101256.94;4131801;28;19965;-63
2023/05/07 08:32:00;;;;;;;;;;;;;;;27.25;38.75;101264.88;4132750;28;20390;-64
2023/05/07 08:34:03;;;;;;;;;;;;;;;27.28;38.71;101258.38;4131311;28;20339;-63
2023/05/07 08:36:04;;;;;;;;;;;;;;;27.29;38.92;101254.63;4133031;28;19921;-64
2023/05/07 08:38:06;;;;;;;;;;;;;;;27.32;38.72;101269.72;4132785;28;19929;-63
2023/05/07 08:40:07;;;;;;;;;;;;;;;27.34;38.48;101267.69;4131576;28;19948;-63
2023/05/07 08:42:14;;;;;;;;;;;;;;;27.36;38.37;101269.22;4132745;28;19921;-63
2023/05/07 08:44:16;;;;;;;;;;;;;;;27.39;38.41;101276.22;4132707;28;19922;-62
2023/05/07 08:46:21;;;;;;;;;;;;;;;27.38;38.69;101274.50;4132627;28;19921;-64
2023/05/07 08:48:25;;;;;;;;;;;;;;;27.38;38.35;101269.94;4132182;28;20008;-63
2023/05/07 08:50:27;;;;;;;;;;;;;;;27.42;38.56;101273.22;4131668;28;19925;-65
2023/05/07 08:52:28;;;;;;;;;;;;;;;27.45;38.57;101275.63;4131085;28;19922;-64
2023/05/07 08:54:30;;;;;;;;;;;;;;;27.49;38.50;101273.47;4132346;28;19968;-63
2023/05/07 08:56:32;;;;;;;;;;;;;;;27.50;38.42;101276.00;4131344;28;20004;-64
2023/05/07 08:58:34;;;;;;;;;;;;;;;27.53;38.40;101275.69;4132572;28;19929;-65
2023/05/07 09:00:37;;;;;;;;;;;;;;;27.57;38.13;101277.09;4131343;28;20379;-63
2023/05/07 09:02:38;;;;;;;;;;;;;;;27.59;37.97;101274.25;4132212;28;19972;-63
2023/05/07 09:04:40;;;;;;;;;;;;;;;27.62;38.00;101273.09;4132587;28;19936;-62
2023/05/07 09:06:41;;;;;;;;;;;;;;;27.64;37.89;101274.63;4132446;28;19926;-63
2023/05/07 09:08:50;;;;;;;;;;;;;;;27.67;37.86;101285.16;4115172;28;20380;-63
2023/05/07 09:10:52;;;;;;;;;;;;;;;27.70;37.81;101284.81;4132107;28;20009;-63
2023/05/07 09:12:54;;;;;;;;;;;;;;;27.71;37.86;101280.28;4130197;28;19928;-63
2023/05/07 09:14:55;;;;;;;;;;;;;;;27.74;38.15;101282.66;4132266;28;19921;-64
2023/05/07 09:16:57;;;;;;;;;;;;;;;27.77;37.71;101285.06;4131882;28;19936;-63
2023/05/07 09:19:00;;;;;;;;;;;;;;;27.80;38.03;101283.91;4132180;28;19922;-65
2023/05/07 09:21:01;;;;;;;;;;;;;;;27.81;37.76;101286.44;4132226;28;20008;-63
2023/05/07 09:23:03;;;;;;;;;;;;;;;27.84;37.85;101288.00;4131127;28;19922;-63
2023/05/07 09:25:06;;;;;;;;;;;;;;;27.85;37.61;101290.56;4131845;28;20406;-64
2023/05/07 09:27:09;;;;;;;;;;;;;;;27.87;37.84;101282.28;4131998;28;19928;-63
2023/05/07 09:29:11;;;;;;;;;;;;;;;27.89;37.86;101283.00;4132030;28;19961;-64
2023/05/07 09:31:13;;;;;;;;;;;;;;;27.90;37.48;101280.13;4131810;28;19929;-63
2023/05/07 09:33:15;;;;;;;;;;;;;;;27.90;37.91;101280.13;4131904;28;20438;-64
2023/05/07 09:35:17;;;;;;;;;;;;;;;27.92;37.84;101279.97;4131932;28;20395;-64
2023/05/07 09:37:19;;;;;;;;;;;;;;;27.94;37.43;101282.53;4131877;28;19925;-63
2023/05/07 09:39:21;;;;;;;;;;;;;;;27.95;37.82;101281.50;4131875;28;19940;-63
2023/05/07 09:41:23;;;;;;;;;;;;;;;27.96;37.54;101280.50;4131007;28;19926;-64
2023/05/07 09:43:25;;;;;;;;;;;;;;;27.97;37.48;101283.06;4131771;28;20399;-64
2023/05/07 09:45:27;;;;;;;;;;;;;;;27.98;37.70;101278.50;4131514;28;19929;-63
2023/05/07 09:47:31;;;;;;;;;;;;;;;27.98;37.36;101287.44;4131730;28;19968;-64
2023/05/07 09:49:37;;;;;;;;;;;;;;;27.99;37.45;101286.44;4131761;28;20008;-64
2023/05/07 09:51:45;;;;;;;;;;;;;;;28.01;37.65;101284.44;4113559;28;19922;-63
2023/05/07 09:53:48;;;;;;;;;;;;;;;28.01;37.38;101289.00;4131643;28;19951;-63
2023/05/07 09:55:50;;;;;;;;;;;;;;;28.00;37.36;101284.59;4131627;28;19921;-63
2023/05/07 09:57:53;;;;;;;;;;;;;;;28.00;37.67;101290.03;4131711;28;19922;-62
2023/05/07 09:59:56;;;;;;;;;;;;;;;27.99;37.71;101293.72;4131340;28;19979;-64
2023/05/07 10:01:59;;;;;;;;;;;;;;;27.98;37.56;101289.31;4130522;28;19940;-63
2023/05/07 10:04:04;;;;;;;;;;;;;;;27.99;37.86;101289.16;4131472;28;19928;-64
2023/05/07 10:06:06;;;;;;;;;;;;;;;28.01;37.62;101287.16;4131660;28;19922;-64
2023/05/07 10:08:09;;;;;;;;;;;;;;;28.01;37.76;101292.56;4131517;28;20342;-64
2023/05/07 10:10:11;;;;;;;;;;;;;;;28.01;37.49;101289.00;4131259;28;19979;-65
2023/05/07 10:12:12;;;;;;;;;;;;;;;28.00;37.63;101287.31;4130370;28;20000;-64
2023/05/07 10:14:14;;;;;;;;;;;;;;;28.01;37.62;101287.16;4131482;28;20017;-65
2023/05/07 10:16:16;;;;;;;;;;;;;;;28.00;37.65;101298.97;4130983;28;19949;-63
2023/05/07 10:18:22;;;;;;;;;;;;;;;28.00;37.46;101295.44;4131378;28;20044;-65
2023/05/07 10:20:25;;;;;;;;;;;;;;;28.00;37.42;101293.56;4131437;28;20305;-64
2023/05/07 10:22:27;;;;;;;;;;;;;;;28.00;37.52;101298.13;4130018;28;19976;-64
2023/05/07 10:24:31;;;;;;;;;;;;;;;27.98;37.60;101297.44;4131157;28;19922;-65